sensor_id;sensor_type;location;lat;lon;timestamp;P1;durP1;ratioP1;P2;durP2;ratioP2
23406;SDS011;11876;53.438;18.942;2023-08-07T00:02:35;0.60;;;0.60;;
23406;SDS011;11876;53.438;18.942;2023-08-07T00:07:38;0.70;;;0.40;;
23406;SDS011;11876;53.438;18.942;2023-08-07T00:12:41;1.90;;;0.70;;
23406;SDS011;11876;53.438;18.942;2023-08-07T00:17:44;3.05;;;0.50;;
23406;SDS011;11876;53.438;18.942;2023-08-07T00:22:47;0.93;;;0.30;;
23406;SDS011;11876;53.438;18.942;2023-08-07T00:27:49;2.17;;;1.00;;
23406;SDS011;11876;53.438;18.942;2023-08-07T00:32:52;2.05;;;0.65;;
23406;SDS011;11876;53.438;18.942;2023-08-07T00:37:54;1.20;;;0.55;;
23406;SDS011;11876;53.438;18.942;2023-08-07T00:42:57;0.95;;;0.85;;
23406;SDS011;11876;53.438;18.942;2023-08-07T00:47:59;2.25;;;0.98;;
23406;SDS011;11876;53.438;18.942;2023-08-07T00:53:02;3.67;;;0.73;;
23406;SDS011;11876;53.438;18.942;2023-08-07T00:58:04;2.13;;;0.95;;
23406;SDS011;11876;53.438;18.942;2023-08-07T01:03:07;2.17;;;0.93;;
23406;SDS011;11876;53.438;18.942;2023-08-07T01:08:10;2.03;;;1.15;;
23406;SDS011;11876;53.438;18.942;2023-08-07T01:13:19;1.63;;;1.25;;
23406;SDS011;11876;53.438;18.942;2023-08-07T01:18:25;2.20;;;1.60;;
23406;SDS011;11876;53.438;18.942;2023-08-07T01:23:28;3.83;;;1.63;;
23406;SDS011;11876;53.438;18.942;2023-08-07T01:28:36;4.15;;;2.00;;
23406;SDS011;11876;53.438;18.942;2023-08-07T01:33:43;3.15;;;1.73;;
23406;SDS011;11876;53.438;18.942;2023-08-07T01:38:53;2.05;;;1.58;;
23406;SDS011;11876;53.438;18.942;2023-08-07T01:43:58;2.05;;;1.63;;
23406;SDS011;11876;53.438;18.942;2023-08-07T01:49:00;2.83;;;1.63;;
23406;SDS011;11876;53.438;18.942;2023-08-07T01:54:03;4.15;;;1.73;;
23406;SDS011;11876;53.438;18.942;2023-08-07T01:59:05;2.65;;;1.85;;
23406;SDS011;11876;53.438;18.942;2023-08-07T02:04:08;1.98;;;1.80;;
23406;SDS011;11876;53.438;18.942;2023-08-07T02:09:10;4.88;;;1.40;;
23406;SDS011;11876;53.438;18.942;2023-08-07T02:14:12;1.73;;;1.25;;
23406;SDS011;11876;53.438;18.942;2023-08-07T02:19:15;13.35;;;2.63;;
23406;SDS011;11876;53.438;18.942;2023-08-07T02:24:17;5.45;;;1.60;;
23406;SDS011;11876;53.438;18.942;2023-08-07T02:29:21;3.20;;;1.55;;
23406;SDS011;11876;53.438;18.942;2023-08-07T02:34:24;3.00;;;1.42;;
23406;SDS011;11876;53.438;18.942;2023-08-07T02:39:26;2.55;;;1.27;;
23406;SDS011;11876;53.438;18.942;2023-08-07T02:44:29;2.30;;;1.35;;
23406;SDS011;11876;53.438;18.942;2023-08-07T02:49:31;1.92;;;1.45;;
23406;SDS011;11876;53.438;18.942;2023-08-07T02:54:34;1.27;;;1.17;;
23406;SDS011;11876;53.438;18.942;2023-08-07T02:59:36;1.50;;;1.40;;
23406;SDS011;11876;53.438;18.942;2023-08-07T03:04:39;3.60;;;1.20;;
23406;SDS011;11876;53.438;18.942;2023-08-07T03:09:44;1.30;;;1.20;;
23406;SDS011;11876;53.438;18.942;2023-08-07T03:14:48;2.03;;;1.50;;
23406;SDS011;11876;53.438;18.942;2023-08-07T03:19:50;1.25;;;1.13;;
23406;SDS011;11876;53.438;18.942;2023-08-07T03:24:53;1.45;;;1.27;;
23406;SDS011;11876;53.438;18.942;2023-08-07T03:29:55;3.15;;;1.17;;
23406;SDS011;11876;53.438;18.942;2023-08-07T03:35:02;1.80;;;1.17;;
23406;SDS011;11876;53.438;18.942;2023-08-07T03:40:05;2.08;;;1.00;;
23406;SDS011;11876;53.438;18.942;2023-08-07T03:45:08;1.10;;;0.93;;
23406;SDS011;11876;53.438;18.942;2023-08-07T03:50:13;0.98;;;0.95;;
23406;SDS011;11876;53.438;18.942;2023-08-07T03:55:15;2.33;;;1.20;;
23406;SDS011;11876;53.438;18.942;2023-08-07T04:00:18;1.25;;;0.80;;
23406;SDS011;11876;53.438;18.942;2023-08-07T04:05:24;1.15;;;0.70;;
23406;SDS011;11876;53.438;18.942;2023-08-07T04:10:26;2.17;;;0.65;;
23406;SDS011;11876;53.438;18.942;2023-08-07T04:15:29;0.60;;;0.60;;
23406;SDS011;11876;53.438;18.942;2023-08-07T04:20:31;0.68;;;0.60;;
23406;SDS011;11876;53.438;18.942;2023-08-07T04:25:34;1.08;;;0.80;;
23406;SDS011;11876;53.438;18.942;2023-08-07T04:30:36;0.90;;;0.88;;
23406;SDS011;11876;53.438;18.942;2023-08-07T04:35:39;1.00;;;0.60;;
23406;SDS011;11876;53.438;18.942;2023-08-07T04:40:45;1.08;;;0.60;;
23406;SDS011;11876;53.438;18.942;2023-08-07T04:45:51;2.50;;;0.90;;
23406;SDS011;11876;53.438;18.942;2023-08-07T04:50:53;0.60;;;0.52;;
23406;SDS011;11876;53.438;18.942;2023-08-07T04:55:56;3.15;;;0.60;;
23406;SDS011;11876;53.438;18.942;2023-08-07T05:00:58;1.63;;;1.15;;
23406;SDS011;11876;53.438;18.942;2023-08-07T05:06:01;0.60;;;0.60;;
23406;SDS011;11876;53.438;18.942;2023-08-07T05:11:04;2.33;;;0.47;;
23406;SDS011;11876;53.438;18.942;2023-08-07T05:16:07;0.70;;;0.70;;
23406;SDS011;11876;53.438;18.942;2023-08-07T05:21:09;0.70;;;0.70;;
23406;SDS011;11876;53.438;18.942;2023-08-07T05:26:12;0.82;;;0.63;;
23406;SDS011;11876;53.438;18.942;2023-08-07T05:31:14;2.38;;;0.70;;
23406;SDS011;11876;53.438;18.942;2023-08-07T05:36:17;1.70;;;0.75;;
23406;SDS011;11876;53.438;18.942;2023-08-07T05:41:20;0.80;;;0.73;;
23406;SDS011;11876;53.438;18.942;2023-08-07T05:46:22;0.70;;;0.70;;
23406;SDS011;11876;53.438;18.942;2023-08-07T05:51:25;0.93;;;0.90;;
23406;SDS011;11876;53.438;18.942;2023-08-07T05:56:27;1.90;;;0.80;;
23406;SDS011;11876;53.438;18.942;2023-08-07T06:01:30;0.80;;;0.80;;
23406;SDS011;11876;53.438;18.942;2023-08-07T06:06:33;0.95;;;0.93;;
23406;SDS011;11876;53.438;18.942;2023-08-07T06:11:36;0.93;;;0.50;;
23406;SDS011;11876;53.438;18.942;2023-08-07T06:16:38;4.38;;;1.00;;
23406;SDS011;11876;53.438;18.942;2023-08-07T06:21:41;1.13;;;0.82;;
23406;SDS011;11876;53.438;18.942;2023-08-07T06:26:44;1.02;;;0.93;;
23406;SDS011;11876;53.438;18.942;2023-08-07T06:31:46;1.92;;;1.35;;
23406;SDS011;11876;53.438;18.942;2023-08-07T06:36:49;1.05;;;0.98;;
23406;SDS011;11876;53.438;18.942;2023-08-07T06:41:51;1.23;;;0.70;;
23406;SDS011;11876;53.438;18.942;2023-08-07T06:47:01;0.70;;;0.70;;
23406;SDS011;11876;53.438;18.942;2023-08-07T06:52:04;0.95;;;0.90;;
23406;SDS011;11876;53.438;18.942;2023-08-07T06:57:07;1.92;;;0.88;;
23406;SDS011;11876;53.438;18.942;2023-08-07T07:02:09;0.75;;;0.75;;
23406;SDS011;11876;53.438;18.942;2023-08-07T07:07:13;1.13;;;1.05;;
23406;SDS011;11876;53.438;18.942;2023-08-07T07:12:15;0.70;;;0.70;;
23406;SDS011;11876;53.438;18.942;2023-08-07T07:17:18;2.70;;;0.88;;
23406;SDS011;11876;53.438;18.942;2023-08-07T07:22:21;0.82;;;0.82;;
23406;SDS011;11876;53.438;18.942;2023-08-07T07:27:23;2.70;;;1.20;;
23406;SDS011;11876;53.438;18.942;2023-08-07T07:32:27;1.88;;;0.90;;
23406;SDS011;11876;53.438;18.942;2023-08-07T07:37:30;2.15;;;1.00;;
23406;SDS011;11876;53.438;18.942;2023-08-07T07:42:33;2.30;;;1.10;;
23406;SDS011;11876;53.438;18.942;2023-08-07T07:47:36;1.27;;;1.17;;
23406;SDS011;11876;53.438;18.942;2023-08-07T07:52:39;1.40;;;1.08;;
23406;SDS011;11876;53.438;18.942;2023-08-07T07:57:42;2.75;;;1.38;;
23406;SDS011;11876;53.438;18.942;2023-08-07T08:02:45;2.28;;;1.50;;
23406;SDS011;11876;53.438;18.942;2023-08-07T08:07:48;3.35;;;1.42;;
23406;SDS011;11876;53.438;18.942;2023-08-07T08:12:50;2.13;;;1.27;;
23406;SDS011;11876;53.438;18.942;2023-08-07T08:17:53;1.83;;;1.67;;
23406;SDS011;11876;53.438;18.942;2023-08-07T08:22:55;3.38;;;1.42;;
23406;SDS011;11876;53.438;18.942;2023-08-07T08:27:58;2.33;;;1.70;;
23406;SDS011;11876;53.438;18.942;2023-08-07T08:33:01;1.52;;;1.40;;
23406;SDS011;11876;53.438;18.942;2023-08-07T08:38:04;1.85;;;1.58;;
23406;SDS011;11876;53.438;18.942;2023-08-07T08:43:06;1.73;;;1.50;;
23406;SDS011;11876;53.438;18.942;2023-08-07T08:48:13;3.88;;;1.40;;
23406;SDS011;11876;53.438;18.942;2023-08-07T08:53:23;2.97;;;1.55;;
23406;SDS011;11876;53.438;18.942;2023-08-07T08:58:26;2.80;;;1.15;;
23406;SDS011;11876;53.438;18.942;2023-08-07T09:03:28;2.17;;;1.35;;
23406;SDS011;11876;53.438;18.942;2023-08-07T09:08:32;4.47;;;1.70;;
23406;SDS011;11876;53.438;18.942;2023-08-07T09:13:36;3.42;;;1.13;;
23406;SDS011;11876;53.438;18.942;2023-08-07T09:18:39;1.27;;;1.10;;
23406;SDS011;11876;53.438;18.942;2023-08-07T09:23:42;2.15;;;1.27;;
23406;SDS011;11876;53.438;18.942;2023-08-07T09:28:44;3.40;;;1.50;;
23406;SDS011;11876;53.438;18.942;2023-08-07T09:33:47;2.13;;;1.40;;
23406;SDS011;11876;53.438;18.942;2023-08-07T09:38:51;2.78;;;1.50;;
23406;SDS011;11876;53.438;18.942;2023-08-07T09:43:54;2.28;;;1.45;;
23406;SDS011;11876;53.438;18.942;2023-08-07T09:48:57;5.50;;;1.50;;
23406;SDS011;11876;53.438;18.942;2023-08-07T09:54:01;2.05;;;1.25;;
23406;SDS011;11876;53.438;18.942;2023-08-07T09:59:03;4.82;;;1.60;;
23406;SDS011;11876;53.438;18.942;2023-08-07T10:04:06;4.18;;;1.60;;
23406;SDS011;11876;53.438;18.942;2023-08-07T10:09:09;4.78;;;1.50;;
23406;SDS011;11876;53.438;18.942;2023-08-07T10:14:12;5.63;;;1.80;;
23406;SDS011;11876;53.438;18.942;2023-08-07T10:19:16;6.68;;;2.10;;
23406;SDS011;11876;53.438;18.942;2023-08-07T10:24:19;3.05;;;1.40;;
23406;SDS011;11876;53.438;18.942;2023-08-07T10:29:22;3.17;;;1.40;;
23406;SDS011;11876;53.438;18.942;2023-08-07T10:34:28;2.10;;;1.40;;
23406;SDS011;11876;53.438;18.942;2023-08-07T10:39:32;2.03;;;1.35;;
23406;SDS011;11876;53.438;18.942;2023-08-07T10:44:44;1.92;;;1.52;;
23406;SDS011;11876;53.438;18.942;2023-08-07T10:49:51;4.93;;;1.20;;
23406;SDS011;11876;53.438;18.942;2023-08-07T10:54:54;1.90;;;1.38;;
23406;SDS011;11876;53.438;18.942;2023-08-07T11:05:01;1.67;;;1.58;;
23406;SDS011;11876;53.438;18.942;2023-08-07T11:10:04;2.95;;;1.33;;
23406;SDS011;11876;53.438;18.942;2023-08-07T11:15:08;2.65;;;1.23;;
23406;SDS011;11876;53.438;18.942;2023-08-07T11:20:15;2.55;;;1.67;;
23406;SDS011;11876;53.438;18.942;2023-08-07T11:25:18;3.13;;;1.20;;
23406;SDS011;11876;53.438;18.942;2023-08-07T11:30:21;1.88;;;1.40;;
23406;SDS011;11876;53.438;18.942;2023-08-07T11:35:26;6.95;;;1.67;;
23406;SDS011;11876;53.438;18.942;2023-08-07T11:40:29;2.95;;;1.30;;
23406;SDS011;11876;53.438;18.942;2023-08-07T11:45:32;6.45;;;1.77;;
23406;SDS011;11876;53.438;18.942;2023-08-07T11:50:34;1.70;;;1.60;;
23406;SDS011;11876;53.438;18.942;2023-08-07T11:55:37;2.53;;;1.00;;
23406;SDS011;11876;53.438;18.942;2023-08-07T12:00:49;4.13;;;1.30;;
23406;SDS011;11876;53.438;18.942;2023-08-07T12:05:51;1.90;;;1.15;;
23406;SDS011;11876;53.438;18.942;2023-08-07T12:10:55;2.67;;;1.60;;
23406;SDS011;11876;53.438;18.942;2023-08-07T12:15:57;1.20;;;1.10;;
23406;SDS011;11876;53.438;18.942;2023-08-07T12:21:00;2.92;;;1.45;;
23406;SDS011;11876;53.438;18.942;2023-08-07T12:26:05;1.98;;;1.30;;
23406;SDS011;11876;53.438;18.942;2023-08-07T12:31:08;1.35;;;1.10;;
23406;SDS011;11876;53.438;18.942;2023-08-07T12:36:11;4.97;;;1.70;;
23406;SDS011;11876;53.438;18.942;2023-08-07T12:41:19;1.42;;;1.33;;
23406;SDS011;11876;53.438;18.942;2023-08-07T12:46:24;2.85;;;1.92;;
23406;SDS011;11876;53.438;18.942;2023-08-07T12:51:30;2.33;;;1.52;;
23406;SDS011;11876;53.438;18.942;2023-08-07T12:56:32;3.20;;;1.48;;
23406;SDS011;11876;53.438;18.942;2023-08-07T13:01:35;1.85;;;1.50;;
23406;SDS011;11876;53.438;18.942;2023-08-07T13:06:37;3.85;;;1.80;;
23406;SDS011;11876;53.438;18.942;2023-08-07T13:11:40;2.97;;;1.55;;
23406;SDS011;11876;53.438;18.942;2023-08-07T13:16:43;2.13;;;1.60;;
23406;SDS011;11876;53.438;18.942;2023-08-07T13:21:46;4.22;;;1.70;;
23406;SDS011;11876;53.438;18.942;2023-08-07T13:26:49;1.98;;;1.60;;
23406;SDS011;11876;53.438;18.942;2023-08-07T13:31:51;2.50;;;1.80;;
23406;SDS011;11876;53.438;18.942;2023-08-07T13:36:55;1.65;;;1.55;;
23406;SDS011;11876;53.438;18.942;2023-08-07T13:41:57;1.98;;;1.55;;
23406;SDS011;11876;53.438;18.942;2023-08-07T13:47:01;3.65;;;1.40;;
23406;SDS011;11876;53.438;18.942;2023-08-07T13:52:03;2.42;;;1.60;;
23406;SDS011;11876;53.438;18.942;2023-08-07T13:57:06;1.80;;;1.35;;
23406;SDS011;11876;53.438;18.942;2023-08-07T14:02:09;3.30;;;1.50;;
23406;SDS011;11876;53.438;18.942;2023-08-07T14:07:12;2.47;;;1.50;;
23406;SDS011;11876;53.438;18.942;2023-08-07T14:12:15;2.45;;;1.58;;
23406;SDS011;11876;53.438;18.942;2023-08-07T14:17:18;2.65;;;2.05;;
23406;SDS011;11876;53.438;18.942;2023-08-07T14:22:20;6.20;;;1.90;;
23406;SDS011;11876;53.438;18.942;2023-08-07T14:27:23;2.40;;;1.63;;
23406;SDS011;11876;53.438;18.942;2023-08-07T14:32:25;4.05;;;1.88;;
23406;SDS011;11876;53.438;18.942;2023-08-07T14:37:28;4.13;;;1.58;;
23406;SDS011;11876;53.438;18.942;2023-08-07T14:42:31;3.95;;;1.90;;
23406;SDS011;11876;53.438;18.942;2023-08-07T14:47:34;6.70;;;1.75;;
23406;SDS011;11876;53.438;18.942;2023-08-07T14:52:36;5.25;;;1.70;;
23406;SDS011;11876;53.438;18.942;2023-08-07T14:57:40;4.03;;;1.70;;
23406;SDS011;11876;53.438;18.942;2023-08-07T15:02:43;4.68;;;2.20;;
23406;SDS011;11876;53.438;18.942;2023-08-07T15:07:46;5.47;;;1.90;;
23406;SDS011;11876;53.438;18.942;2023-08-07T15:12:49;4.45;;;1.83;;
23406;SDS011;11876;53.438;18.942;2023-08-07T15:17:51;2.47;;;2.17;;
23406;SDS011;11876;53.438;18.942;2023-08-07T15:22:54;5.25;;;2.17;;
23406;SDS011;11876;53.438;18.942;2023-08-07T15:27:57;4.47;;;2.22;;
23406;SDS011;11876;53.438;18.942;2023-08-07T15:33:02;4.30;;;2.53;;
23406;SDS011;11876;53.438;18.942;2023-08-07T15:38:04;8.75;;;2.78;;
23406;SDS011;11876;53.438;18.942;2023-08-07T15:43:07;5.72;;;2.92;;
23406;SDS011;11876;53.438;18.942;2023-08-07T15:48:11;7.20;;;2.55;;
23406;SDS011;11876;53.438;18.942;2023-08-07T15:53:14;6.55;;;2.92;;
23406;SDS011;11876;53.438;18.942;2023-08-07T15:58:17;8.73;;;4.00;;
23406;SDS011;11876;53.438;18.942;2023-08-07T16:03:19;6.13;;;2.83;;
23406;SDS011;11876;53.438;18.942;2023-08-07T16:08:24;4.53;;;2.50;;
23406;SDS011;11876;53.438;18.942;2023-08-07T16:13:26;4.28;;;2.40;;
23406;SDS011;11876;53.438;18.942;2023-08-07T16:18:28;8.88;;;2.50;;
23406;SDS011;11876;53.438;18.942;2023-08-07T16:23:31;4.60;;;2.10;;
23406;SDS011;11876;53.438;18.942;2023-08-07T16:28:33;5.53;;;2.20;;
23406;SDS011;11876;53.438;18.942;2023-08-07T16:33:36;5.43;;;2.03;;
23406;SDS011;11876;53.438;18.942;2023-08-07T16:38:38;5.53;;;1.92;;
23406;SDS011;11876;53.438;18.942;2023-08-07T16:43:41;5.50;;;2.50;;
23406;SDS011;11876;53.438;18.942;2023-08-07T16:48:43;5.10;;;2.35;;
23406;SDS011;11876;53.438;18.942;2023-08-07T16:53:47;7.10;;;3.05;;
23406;SDS011;11876;53.438;18.942;2023-08-07T16:58:50;5.78;;;2.50;;
23406;SDS011;11876;53.438;18.942;2023-08-07T17:03:52;4.35;;;2.40;;
23406;SDS011;11876;53.438;18.942;2023-08-07T17:08:55;8.32;;;2.42;;
23406;SDS011;11876;53.438;18.942;2023-08-07T17:13:57;4.93;;;2.92;;
23406;SDS011;11876;53.438;18.942;2023-08-07T17:19:00;8.82;;;4.13;;
23406;SDS011;11876;53.438;18.942;2023-08-07T17:24:04;5.57;;;3.00;;
23406;SDS011;11876;53.438;18.942;2023-08-07T17:29:06;6.63;;;2.78;;
23406;SDS011;11876;53.438;18.942;2023-08-07T17:34:09;7.43;;;3.50;;
23406;SDS011;11876;53.438;18.942;2023-08-07T17:39:11;4.65;;;3.10;;
23406;SDS011;11876;53.438;18.942;2023-08-07T17:44:14;4.63;;;2.83;;
23406;SDS011;11876;53.438;18.942;2023-08-07T17:49:17;6.65;;;3.03;;
23406;SDS011;11876;53.438;18.942;2023-08-07T17:54:19;5.15;;;3.20;;
23406;SDS011;11876;53.438;18.942;2023-08-07T17:59:22;4.53;;;2.08;;
23406;SDS011;11876;53.438;18.942;2023-08-07T18:04:24;6.65;;;3.03;;
23406;SDS011;11876;53.438;18.942;2023-08-07T18:09:27;4.10;;;3.00;;
23406;SDS011;11876;53.438;18.942;2023-08-07T18:14:30;5.22;;;3.03;;
23406;SDS011;11876;53.438;18.942;2023-08-07T18:19:32;3.97;;;2.58;;
23406;SDS011;11876;53.438;18.942;2023-08-07T18:24:35;5.75;;;2.83;;
23406;SDS011;11876;53.438;18.942;2023-08-07T18:29:37;4.72;;;2.70;;
23406;SDS011;11876;53.438;18.942;2023-08-07T18:34:40;6.25;;;2.67;;
23406;SDS011;11876;53.438;18.942;2023-08-07T18:39:42;6.22;;;2.92;;
23406;SDS011;11876;53.438;18.942;2023-08-07T18:44:45;6.25;;;4.10;;
23406;SDS011;11876;53.438;18.942;2023-08-07T18:49:47;7.82;;;3.30;;
23406;SDS011;11876;53.438;18.942;2023-08-07T18:54:50;8.85;;;2.75;;
23406;SDS011;11876;53.438;18.942;2023-08-07T18:59:53;5.25;;;3.20;;
23406;SDS011;11876;53.438;18.942;2023-08-07T19:04:56;5.97;;;2.70;;
23406;SDS011;11876;53.438;18.942;2023-08-07T19:09:58;4.50;;;2.97;;
23406;SDS011;11876;53.438;18.942;2023-08-07T19:15:02;8.38;;;2.72;;
23406;SDS011;11876;53.438;18.942;2023-08-07T19:20:05;7.13;;;2.60;;
23406;SDS011;11876;53.438;18.942;2023-08-07T19:25:08;7.45;;;2.85;;
23406;SDS011;11876;53.438;18.942;2023-08-07T19:30:11;7.45;;;3.15;;
23406;SDS011;11876;53.438;18.942;2023-08-07T19:35:14;4.35;;;2.53;;
23406;SDS011;11876;53.438;18.942;2023-08-07T19:40:16;9.77;;;2.63;;
23406;SDS011;11876;53.438;18.942;2023-08-07T19:45:25;6.93;;;2.67;;
23406;SDS011;11876;53.438;18.942;2023-08-07T19:50:28;6.13;;;2.47;;
23406;SDS011;11876;53.438;18.942;2023-08-07T19:55:30;8.45;;;2.78;;
23406;SDS011;11876;53.438;18.942;2023-08-07T20:00:32;4.15;;;2.85;;
23406;SDS011;11876;53.438;18.942;2023-08-07T20:05:35;7.47;;;2.58;;
23406;SDS011;11876;53.438;18.942;2023-08-07T20:10:37;6.63;;;3.03;;
23406;SDS011;11876;53.438;18.942;2023-08-07T20:15:40;3.17;;;2.50;;
23406;SDS011;11876;53.438;18.942;2023-08-07T20:20:42;7.78;;;3.10;;
23406;SDS011;11876;53.438;18.942;2023-08-07T20:25:45;5.90;;;2.63;;
23406;SDS011;11876;53.438;18.942;2023-08-07T20:30:47;9.13;;;3.50;;
23406;SDS011;11876;53.438;18.942;2023-08-07T20:35:50;10.10;;;2.88;;
23406;SDS011;11876;53.438;18.942;2023-08-07T20:40:52;6.88;;;2.50;;
23406;SDS011;11876;53.438;18.942;2023-08-07T20:45:55;5.88;;;2.58;;
23406;SDS011;11876;53.438;18.942;2023-08-07T20:50:57;6.85;;;2.47;;
23406;SDS011;11876;53.438;18.942;2023-08-07T20:56:00;9.32;;;3.17;;
23406;SDS011;11876;53.438;18.942;2023-08-07T21:01:02;6.03;;;2.60;;
23406;SDS011;11876;53.438;18.942;2023-08-07T21:06:06;5.75;;;2.80;;
23406;SDS011;11876;53.438;18.942;2023-08-07T21:11:08;5.35;;;2.45;;
23406;SDS011;11876;53.438;18.942;2023-08-07T21:16:10;6.28;;;2.20;;
23406;SDS011;11876;53.438;18.942;2023-08-07T21:21:15;5.97;;;2.50;;
23406;SDS011;11876;53.438;18.942;2023-08-07T21:26:17;14.48;;;3.38;;
23406;SDS011;11876;53.438;18.942;2023-08-07T21:31:20;7.38;;;2.80;;
23406;SDS011;11876;53.438;18.942;2023-08-07T21:36:23;7.18;;;2.75;;
23406;SDS011;11876;53.438;18.942;2023-08-07T21:41:25;7.70;;;2.67;;
23406;SDS011;11876;53.438;18.942;2023-08-07T21:46:28;6.82;;;2.97;;
23406;SDS011;11876;53.438;18.942;2023-08-07T21:51:30;6.35;;;2.90;;
23406;SDS011;11876;53.438;18.942;2023-08-07T21:56:33;8.00;;;2.33;;
23406;SDS011;11876;53.438;18.942;2023-08-07T22:01:36;4.88;;;2.13;;
23406;SDS011;11876;53.438;18.942;2023-08-07T22:06:38;6.85;;;3.08;;
23406;SDS011;11876;53.438;18.942;2023-08-07T22:11:41;4.25;;;2.33;;
23406;SDS011;11876;53.438;18.942;2023-08-07T22:16:44;4.95;;;2.63;;
23406;SDS011;11876;53.438;18.942;2023-08-07T22:21:46;5.78;;;2.67;;
23406;SDS011;11876;53.438;18.942;2023-08-07T22:26:49;5.72;;;2.30;;
23406;SDS011;11876;53.438;18.942;2023-08-07T22:31:52;11.23;;;2.42;;
23406;SDS011;11876;53.438;18.942;2023-08-07T22:36:55;8.27;;;2.42;;
23406;SDS011;11876;53.438;18.942;2023-08-07T22:41:57;7.28;;;2.40;;
23406;SDS011;11876;53.438;18.942;2023-08-07T22:47:00;7.05;;;2.33;;
23406;SDS011;11876;53.438;18.942;2023-08-07T22:52:03;7.65;;;2.35;;
23406;SDS011;11876;53.438;18.942;2023-08-07T22:57:05;6.60;;;2.20;;
23406;SDS011;11876;53.438;18.942;2023-08-07T23:02:08;6.43;;;2.05;;
23406;SDS011;11876;53.438;18.942;2023-08-07T23:07:10;12.48;;;2.33;;
23406;SDS011;11876;53.438;18.942;2023-08-07T23:12:13;6.22;;;2.22;;
23406;SDS011;11876;53.438;18.942;2023-08-07T23:17:18;6.55;;;2.40;;
23406;SDS011;11876;53.438;18.942;2023-08-07T23:22:20;7.18;;;2.50;;
23406;SDS011;11876;53.438;18.942;2023-08-07T23:27:23;9.23;;;2.50;;
23406;SDS011;11876;53.438;18.942;2023-08-07T23:32:26;11.30;;;3.25;;
23406;SDS011;11876;53.438;18.942;2023-08-07T23:37:28;7.03;;;2.75;;
23406;SDS011;11876;53.438;18.942;2023-08-07T23:42:31;4.90;;;2.42;;
23406;SDS011;11876;53.438;18.942;2023-08-07T23:47:34;12.73;;;2.38;;
23406;SDS011;11876;53.438;18.942;2023-08-07T23:52:36;5.53;;;2.17;;
23406;SDS011;11876;53.438;18.942;2023-08-07T23:57:39;12.38;;;2.83;;
